Latest Coastal Weather Observations for Albion Park

IDN60701

Issued at 10:32 am EST Wednesday 31 August 2016 (issued every 10 minutes, with the page automatically refreshed every 10 minutes)

About coastal observations | Map of coastal stations | Coastal observations for NSW | Marine services | Other Formats
Station Details ID: 068241 Name: WOLLONGONG AIRPORT Lat: -34.56 Lon: 150.79 Height: 8.0 m
Data from the previous 72 hours. | See also: Recent months at Albion Park
Date/Time
EST
Temp
°C
Wind Pressure Rain since
9am
mm
Weather Cloud Vis
km
Sea
Height
m
Swell
Dir  Spd
kts
Gust
kts
hPa Trend Height
m
Period
s
Dir
31/10:00am 17.1 N 8 11 1016.9 - 0.0 - Partly cloudy 10 - - - -
31/09:30am 17.7 N 11 13 1017.5 - 0.0 - Cloudy 10 - - - -
31/09:00am 17.4 NNW 10 13 1017.7 - - - Cloudy 10 - - - -
31/08:30am 15.8 W 4 6 1017.9 - - - - 10 - - - -
31/08:00am 14.6 W 2 4 1018.1 - - - - 10 - - - -
31/07:30am 14.2 WSW 3 7 1018.1 - - - - 10 - - - -
31/07:00am 14.2 CALM 0 3 1017.9 - - - - 10 - - - -
31/06:30am 14.4 NW 6 8 1018.2 - - - - 10 - - - -
31/06:00am 15.8 NNW 7 9 1018.2 - - - Cloudy 10 - - - -
31/05:30am 13.5 CALM 0 3 1018.3 - - - - 10 - - - -
31/05:00am 14.1 ENE 2 4 1018.4 - - - - 10 - - - -
31/04:30am 13.7 ESE 1 4 1018.1 - - - - 10 - - - -
31/04:00am 13.2 CALM 0 3 1018.0 - - - - 10 - - - -
31/03:30am 13.5 W 1 3 1018.2 - - - - 10 - - - -
31/03:00am 14.4 CALM 0 4 1018.7 - 0.0 - Cloudy 10 - - - -
31/02:30am 14.0 CALM 0 0 1019.1 - - - - 10 - - - -
31/02:00am 14.4 N 1 4 1019.6 - - - - 10 - - - -
31/01:30am 13.6 WNW 3 6 1020.0 - - - - 10 - - - -
31/01:00am 13.3 CALM 0 0 1020.4 - - - - 10 - - - -
31/12:30am 13.2 W 2 4 1021.1 - - - - 10 - - - -
31/12:00am 13.5 CALM 0 0 1021.3 - - - Cloudy 10 - - - -
 
Date/Time
EST
Temp
°C
Wind Pressure Rain since
9am
mm
Weather Cloud Vis
km
Sea
Height
m
Swell
Dir  Spd
kts
Gust
kts
hPa Trend Height
m
Period
s
Dir
30/11:30pm 13.4 CALM 0 0 1021.7 - - - - 10 - - - -
30/11:00pm 13.7 NW 2 4 1021.8 - - - - 10 - - - -
30/10:30pm 14.4 NNW 5 6 1021.7 - - - - 10 - - - -
30/10:00pm 13.7 CALM 0 0 1021.8 - - - - 10 - - - -
30/09:30pm 13.8 W 2 5 1022.0 - - - - 10 - - - -
30/09:00pm 14.1 W 1 4 1021.7 - 0.0 - Cloudy 10 - - - -
30/08:30pm 13.7 W 5 8 1022.6 - - - - 10 - - - -
30/08:00pm 14.3 CALM 0 0 1022.3 - - - - 10 - - - -
30/07:30pm 14.0 SW 3 4 1022.7 - - - - 10 - - - -
30/07:00pm 14.3 WNW 3 6 1022.7 - - - - 10 - - - -
30/06:30pm 15.7 WNW 4 6 1022.6 - - - - 10 - - - -
30/06:00pm 16.8 NNW 4 7 1022.6 - - - Mostly clear 10 - - - -
30/05:30pm 17.6 NNE 4 6 1022.3 - - - - 10 - - - -
30/05:00pm 17.7 ENE 8 12 1021.9 - - - - 10 - - - -
30/04:30pm 18.2 ENE 10 13 1021.5 - - - - 10 - - - -
30/04:00pm 18.5 ENE 13 16 1021.6 - - - - 10 - - - -
30/03:30pm 19.0 ENE 12 15 1021.8 - - - - 10 - - - -
30/03:00pm 19.5 ENE 12 15 1021.9 - - - Partly cloudy 10 - - - -
30/02:30pm 19.5 ENE 12 15 1022.3 - - - - 10 - - - -
30/02:00pm 19.4 NE 10 13 1022.6 - - - - 10 - - - -
30/01:30pm 18.9 ENE 11 15 1022.9 - - - - 10 - - - -
30/01:00pm 20.2 NE 10 13 1023.4 - - - - 10 - - - -
30/12:30pm 19.0 NE 10 13 1023.9 - - - - 10 - - - -
30/12:00pm 18.8 NE 7 9 1024.9 - - Recent precip. Mostly cloudy 10 - - - -
30/11:30am 19.6 NNE 5 8 1025.3 - - - - 10 - - - -
30/11:00am 19.5 N 6 9 1025.7 - 0.0 - - 10 - - - -
30/10:30am 19.0 N 7 9 1025.8 - 0.0 - - 10 - - - -
30/10:00am 18.6 NNW 6 9 1026.1 - 0.0 - - 10 - - - -
30/09:30am 17.8 NW 8 10 1026.1 - 0.0 - - 10 - - - -
30/09:00am 17.6 NNW 8 11 1026.3 - 0.0 - Cloudy 10 - - - -
30/08:30am 15.7 NW 5 6 1026.5 - 0.0 - - 10 - - - -
30/08:00am 14.4 W 6 8 1026.5 - 0.0 - - 10 - - - -
30/07:30am 11.5 W 1 4 1026.4 - 0.0 - - 10 - - - -
30/07:00am 11.1 W 4 5 1026.0 - 0.0 - - 10 - - - -
30/06:30am 9.6 CALM 0 0 1026.1 - 0.0 - - 10 - - - -
30/06:00am 8.8 W 3 4 1026.2 - 0.0 - Mostly cloudy 10 - - - -
30/05:30am 9.2 CALM 0 1 1026.0 - 0.0 - - 10 - - - -
30/05:00am 8.6 CALM 0 0 1025.8 - 0.0 - - 10 - - - -
30/04:30am 8.2 WSW 1 4 1025.7 - 0.0 - - 10 - - - -
30/04:00am 8.2 W 7 8 1025.7 - 0.0 - - 10 - - - -
30/03:30am 8.3 W 3 4 1025.2 - 0.0 - - 10 - - - -
30/03:00am 8.1 W 6 7 1025.4 - 0.0 - Cloudy 10 - - - -
30/02:30am 9.2 W 6 8 1025.3 - 0.0 - - 10 - - - -
30/02:00am 10.7 W 3 4 1025.7 - 0.0 - - 10 - - - -
30/01:30am 9.6 NW 3 5 1026.0 - 0.0 - - 10 - - - -
30/01:00am 8.9 CALM 0 0 1026.3 - 0.0 - - 10 - - - -
30/12:30am 9.1 CALM 0 0 1026.7 - 0.0 - - 10 - - - -
30/12:00am 9.6 CALM 0 0 1026.6 - 0.0 - Mostly cloudy 10 - - - -
 
Date/Time
EST
Temp
°C
Wind Pressure Rain since
9am
mm
Weather Cloud Vis
km
Sea
Height
m
Swell
Dir  Spd
kts
Gust
kts
hPa Trend Height
m
Period
s
Dir
29/11:30pm 9.9 W 2 5 1026.5 - 0.0 - - 10 - - - -
29/11:00pm 10.9 W 4 5 1026.8 - 0.0 - - 10 - - - -
29/10:30pm 10.8 CALM 0 0 1026.6 - 0.0 - - 10 - - - -
29/10:00pm 11.3 W 5 6 1026.4 - 0.0 - - 10 - - - -
29/09:30pm 11.5 W 6 10 1026.3 - 0.0 - - 10 - - - -
29/09:00pm 11.7 SW 4 6 1026.1 - 0.0 - Cloudy 10 - - - -
29/08:30pm 12.1 CALM 0 0 1025.8 - 0.0 - - 10 - - - -
29/08:00pm 12.7 WSW 4 5 1025.9 - 0.0 - - 10 - - - -
29/07:30pm 13.1 WSW 6 8 1026.0 - 0.0 - - 10 - - - -
29/07:00pm 13.3 W 5 6 1025.9 - 0.0 - - 10 - - - -
29/06:30pm 14.0 W 4 5 1025.5 - 0.0 - - 10 - - - -
29/06:00pm 15.9 NNE 3 4 1025.4 - 0.0 - Mostly cloudy 10 - - - -
29/05:30pm 16.0 ENE 5 6 1025.3 - 0.0 - - 10 - - - -
29/05:00pm 16.3 ENE 5 7 1025.2 - 0.0 - - 10 - - - -
29/04:30pm 16.9 ENE 7 11 1024.9 - 0.0 - - 10 - - - -
29/04:00pm 17.2 NE 7 8 1024.8 - 0.0 - - 10 - - - -
29/03:30pm 17.4 NE 8 10 1024.7 - 0.0 - - 10 - - - -
29/03:00pm 17.8 NE 7 9 1024.9 - 0.0 - Cloudy 10 - - - -
29/02:30pm 17.7 NE 8 9 1025.1 - 0.0 - - 10 - - - -
29/02:00pm 18.1 NE 9 11 1024.7 - 0.0 - - 10 - - - -
29/01:30pm 18.8 ENE 7 9 1024.7 - 0.0 - - 10 - - - -
29/01:00pm 18.5 NE 7 9 1025.0 - 0.0 - - 10 - - - -
29/12:30pm 18.7 NE 8 10 1025.2 - 0.0 - - 10 - - - -
29/12:00pm 18.7 NE 8 10 1025.3 - 0.0 - - 10 - - - -
29/11:30am 18.6 ENE 7 10 1025.8 - 0.0 - - 10 - - - -
29/11:00am 18.8 NNE 5 7 1026.3 - 0.0 - - 10 - - - -
29/10:30am 17.5 NE 5 7 1026.6 - 0.0 - - 10 - - - -
29/10:00am 18.4 SW 4 5 1026.7 - 0.0 - - 10 - - - -
29/09:30am 18.5 CALM 0 3 1026.7 - 0.0 - - 10 - - - -
29/09:00am 16.2 SW 3 4 1026.9 - 0.0 - Mostly cloudy 10 - - - -
29/08:30am 14.8 SW 3 4 1026.6 - 0.0 - - 10 - - - -
29/08:00am 12.3 SW 3 5 1026.4 - 0.0 - - 10 - - - -
29/07:30am 9.0 SW 3 4 1026.1 - 0.0 - - 10 - - - -
29/07:00am 6.9 SW 3 5 1025.7 - 0.0 - - 10 - - - -
29/06:30am 6.2 SW 5 6 1024.9 - 0.0 - - 10 - - - -
29/06:00am 5.8 SW 4 5 1024.8 - 0.0 - Mostly cloudy 10 - - - -
29/05:30am 6.8 SW 4 5 1024.5 - 0.0 - - 10 - - - -
29/05:00am 6.4 SW 4 6 1024.3 - 0.0 - - 10 - - - -
29/04:30am 5.8 SW 2 5 1023.8 - 0.0 - - 10 - - - -
29/04:00am 6.0 SW 4 5 1023.6 - 0.0 - - 10 - - - -
29/03:30am 6.4 SW 5 6 1023.5 - 0.0 - - 10 - - - -
29/03:00am 5.8 WSW 1 3 1023.3 - 0.0 - - 10 - - - -
29/02:30am 6.9 WSW 2 5 1023.3 - 0.0 - - 10 - - - -
29/02:00am 7.6 WSW 1 5 1023.4 - 0.0 - - 10 - - - -
29/01:30am 7.0 WSW 2 5 1023.4 - 0.0 - - 10 - - - -
29/01:00am 7.0 WSW 2 5 1023.3 - 0.0 - - 10 - - - -
29/12:30am 7.5 WSW 3 5 1023.1 - 0.0 - - 10 - - - -
29/12:00am 8.1 WSW 1 4 1023.0 - 0.0 - Cloudy 10 - - - -
 
Date/Time
EST
Temp
°C
Wind Pressure Rain since
9am
mm
Weather Cloud Vis
km
Sea
Height
m
Swell
Dir  Spd
kts
Gust
kts
hPa Trend Height
m
Period
s
Dir
28/11:30pm 8.9 WSW 4 5 1022.9 - 0.0 - - 10 - - - -
28/11:00pm 8.7 WSW 1 5 1022.7 - 0.0 - - 10 - - - -
28/10:30pm 8.2 WSW 2 3 1023.1 - 0.0 - - 10 - - - -
28/10:00pm 8.8 WSW 5 6 1023.1 - 0.0 - - 10 - - - -
28/09:30pm 7.2 WSW 1 4 1023.3 - 0.0 - - 10 - - - -
28/09:00pm 7.9 WSW 2 4 1023.1 - 0.0 - Mostly cloudy 10 - - - -
28/08:30pm 8.1 WSW 4 5 1023.1 - 0.0 - - 10 - - - -
28/08:00pm 8.3 WSW 4 5 1023.0 - 0.0 - - 10 - - - -
28/07:30pm 9.4 WSW 4 5 1022.8 - 0.0 - - 10 - - - -
28/07:00pm 9.5 WSW 4 7 1022.5 - 0.0 - - 10 - - - -
28/06:30pm 11.2 WSW 4 5 1022.2 - 0.0 - - 10 - - - -
28/06:00pm 11.9 WSW 4 6 1021.8 - 0.0 - - 10 - - - -
28/05:30pm 14.3 WSW 5 7 1021.4 - 0.0 - - 10 - - - -
28/05:00pm 17.5 WSW 3 6 1021.1 - 0.0 - - 10 - - - -
28/04:30pm 17.5 W 9 12 1020.8 - 0.0 - - 10 - - - -
28/04:00pm 17.8 W 11 16 1020.6 - 0.0 - - 10 - - - -
28/03:30pm 17.9 W 13 19 1020.6 - 0.0 - - 10 - - - -
28/03:00pm 18.3 WSW 15 19 1020.6 - 0.0 - - 10 - - - -
28/02:30pm 18.4 WSW 15 20 1020.5 - 0.0 - - 10 - - - -
28/02:00pm 19.1 W 11 13 1020.4 - 0.0 - - 10 - - - -
28/01:30pm 18.6 W 9 13 1020.5 - 0.0 - - 10 - - - -
28/01:00pm 18.5 W 14 17 1020.5 - 0.0 - - 10 - - - -
28/12:30pm 18.7 SSW 6 10 1020.9 - 0.0 - - 10 - - - -
28/12:00pm 18.0 S 5 11 1020.9 - 0.0 - Mostly clear 10 - - - -
28/11:30am 18.0 SW 9 14 1021.4 - 0.0 - - 10 - - - -
28/11:00am 17.4 SW 8 13 1021.8 - 0.0 - - 10 - - - -

Other Formats:

Comma delimited format used in spreadsheet applications
http://www.bom.gov.au/fwo/IDN60701/IDN60701.95748.axf

JavaScript Object Notation format (JSON) in row-major order
http://www.bom.gov.au/fwo/IDN60701/IDN60701.95748.json